createdAt,value
2019-03-04T00:02:04.724Z,1.90
2019-03-04T00:07:23.300Z,2.37
2019-03-04T00:12:41.901Z,1.93
2019-03-04T00:18:00.523Z,2.22
2019-03-04T00:23:19.064Z,3.00
2019-03-04T00:28:37.622Z,2.60
2019-03-04T00:33:56.411Z,2.70
2019-03-04T00:39:15.036Z,2.87
2019-03-04T00:44:33.670Z,2.80
2019-03-04T00:49:52.212Z,2.70
2019-03-04T00:55:11.843Z,2.65
2019-03-04T01:00:30.402Z,2.43
2019-03-04T01:05:50.400Z,2.27
2019-03-04T01:11:09.072Z,2.83
2019-03-04T01:16:27.690Z,1.90
2019-03-04T01:21:46.336Z,1.80
2019-03-04T01:27:05.341Z,2.60
2019-03-04T01:32:24.088Z,2.13
2019-03-04T01:37:42.705Z,1.93
2019-03-04T01:43:01.328Z,1.90
2019-03-04T01:48:28.556Z,2.00
2019-03-04T01:53:47.186Z,2.00
2019-03-04T01:59:05.734Z,1.95
2019-03-04T02:04:24.289Z,1.80
2019-03-04T02:09:42.828Z,1.53
2019-03-04T02:15:01.456Z,1.57
2019-03-04T02:20:20.085Z,1.02
2019-03-04T02:25:44.950Z,1.30
2019-03-04T02:31:03.615Z,1.37
2019-03-04T02:36:22.093Z,1.20
2019-03-04T02:41:40.791Z,1.00
2019-03-04T02:46:59.488Z,1.10
2019-03-04T02:52:18.101Z,1.40
2019-03-04T02:57:36.726Z,1.30
2019-03-04T03:02:55.270Z,1.40
2019-03-04T03:08:13.822Z,1.10
2019-03-04T03:13:32.446Z,1.30
2019-03-04T03:18:51.007Z,1.23
2019-03-04T03:24:09.553Z,1.30
2019-03-04T03:29:28.203Z,1.30
2019-03-04T03:34:46.647Z,1.20
2019-03-04T03:40:11.056Z,0.93
2019-03-04T03:45:29.678Z,1.70
2019-03-04T03:50:48.308Z,2.12
2019-03-04T03:56:06.927Z,1.23
2019-03-04T04:01:25.534Z,1.57
2019-03-04T04:06:44.193Z,2.00
2019-03-04T04:12:02.865Z,1.53
2019-03-04T04:17:21.477Z,1.83
2019-03-04T04:22:40.095Z,1.47
2019-03-04T04:27:58.711Z,1.80
2019-03-04T04:33:17.254Z,1.50
2019-03-04T04:38:35.811Z,1.33
2019-03-04T04:43:54.570Z,1.30
2019-03-04T04:49:13.182Z,1.10
2019-03-04T04:54:31.795Z,1.30
2019-03-04T04:59:50.278Z,1.03
2019-03-04T05:05:08.961Z,1.13
2019-03-04T05:10:27.604Z,0.90
2019-03-04T05:15:46.148Z,1.30
2019-03-04T05:21:04.635Z,1.10
2019-03-04T05:26:23.182Z,1.00
2019-03-04T05:31:41.788Z,0.87
2019-03-04T05:37:00.352Z,0.80
2019-03-04T05:42:19.181Z,1.07
2019-03-04T05:47:37.809Z,1.10
2019-03-04T05:52:56.415Z,1.12
2019-03-04T05:58:15.103Z,1.30
2019-03-04T06:03:33.722Z,1.13
2019-03-04T06:08:52.360Z,1.17
2019-03-04T06:14:11.062Z,1.23
2019-03-04T06:19:29.650Z,1.10
2019-03-04T06:24:48.156Z,1.20
2019-03-04T06:30:15.283Z,0.80
2019-03-04T06:35:33.905Z,0.77
2019-03-04T06:40:52.694Z,1.50
2019-03-04T06:46:12.513Z,0.80
2019-03-04T06:51:34.175Z,0.80
2019-03-04T06:56:55.876Z,1.10
2019-03-04T07:02:32.491Z,0.93
2019-03-04T07:07:51.105Z,0.87
2019-03-04T07:13:09.766Z,1.17
2019-03-04T07:18:28.381Z,1.00
2019-03-04T07:23:46.997Z,0.93
2019-03-04T07:29:05.649Z,0.90
2019-03-04T07:34:24.190Z,0.90
2019-03-04T07:39:42.726Z,0.97
2019-03-04T07:45:01.498Z,0.90
2019-03-04T07:50:20.099Z,0.80
2019-03-04T07:55:38.729Z,1.10
2019-03-04T08:00:57.488Z,0.80
2019-03-04T08:06:16.109Z,1.20
2019-03-04T08:11:46.497Z,0.90
2019-03-04T08:17:05.109Z,1.00
2019-03-04T08:22:23.745Z,1.23
2019-03-04T08:27:42.350Z,1.10
2019-03-04T08:33:01.102Z,1.00
2019-03-04T08:38:19.711Z,1.07
2019-03-04T08:43:38.316Z,1.20
2019-03-04T08:48:56.873Z,1.30
2019-03-04T08:54:15.416Z,1.83
2019-03-04T08:59:33.979Z,1.27
2019-03-04T09:04:52.495Z,1.00
2019-03-04T09:10:19.819Z,1.12
2019-03-04T09:15:38.555Z,1.20
2019-03-04T09:20:57.447Z,0.80
2019-03-04T09:26:16.092Z,0.80
2019-03-04T09:31:34.765Z,1.40
2019-03-04T09:36:53.292Z,1.20
2019-03-04T09:42:13.406Z,2.83
2019-03-04T09:47:32.087Z,1.30
2019-03-04T09:52:50.652Z,1.60
2019-03-04T09:58:09.288Z,1.83
2019-03-04T10:03:42.803Z,1.50
2019-03-04T10:09:19.590Z,1.23
2019-03-04T10:14:46.847Z,1.60
2019-03-04T10:20:27.150Z,1.47
2019-03-04T10:25:57.538Z,1.20
2019-03-04T10:31:48.165Z,1.67
2019-03-04T10:37:22.075Z,1.50
2019-03-04T10:43:14.006Z,1.20
2019-03-04T10:48:32.486Z,1.10
2019-03-04T10:53:50.950Z,1.20
2019-03-04T10:59:09.492Z,1.93
2019-03-04T11:04:28.107Z,1.37
2019-03-04T11:09:46.675Z,1.07
2019-03-04T11:15:08.139Z,1.70
2019-03-04T11:20:26.681Z,1.40
2019-03-04T11:25:45.505Z,1.13
2019-03-04T11:31:04.196Z,1.10
2019-03-04T11:36:22.806Z,1.10
2019-03-04T11:41:41.415Z,1.02
2019-03-04T11:47:00.030Z,0.90
2019-03-04T11:52:18.671Z,1.00
2019-03-04T11:57:37.185Z,1.37
2019-03-04T12:02:55.882Z,1.53
2019-03-04T12:08:14.505Z,1.82
2019-03-04T12:13:33.103Z,1.80
2019-03-04T12:18:51.725Z,2.20
2019-03-04T12:24:10.352Z,2.10
2019-03-04T12:29:28.948Z,1.43
2019-03-04T12:34:47.661Z,1.10
2019-03-04T12:40:09.613Z,1.33
2019-03-04T12:45:34.388Z,1.23
2019-03-04T12:50:48.631Z,1.30
2019-03-04T12:56:07.264Z,1.47
2019-03-04T13:01:27.911Z,1.23
2019-03-04T13:06:46.533Z,1.17
2019-03-04T13:12:06.014Z,1.10
2019-03-04T13:17:24.643Z,1.93
2019-03-04T13:22:43.287Z,2.40
2019-03-04T13:28:08.173Z,3.53
2019-03-04T13:33:23.322Z,1.67
2019-03-04T13:38:43.446Z,2.47
2019-03-04T13:44:01.989Z,4.20
2019-03-04T13:49:20.602Z,3.05
2019-03-04T13:54:39.212Z,2.77
2019-03-04T13:59:57.675Z,3.00
2019-03-04T14:05:18.622Z,3.37
2019-03-04T14:10:39.561Z,3.17
2019-03-04T14:15:58.713Z,3.07
2019-03-04T14:21:17.320Z,1.50
2019-03-04T14:26:35.925Z,1.60
2019-03-04T14:31:54.547Z,2.47
2019-03-04T14:37:13.095Z,2.67
2019-03-04T14:42:31.654Z,2.23
2019-03-04T14:47:50.198Z,3.10
2019-03-04T14:53:08.810Z,1.70
2019-03-04T14:58:27.435Z,1.97
2019-03-04T15:03:45.992Z,2.70
2019-03-04T15:09:08.079Z,1.80
2019-03-04T15:14:26.613Z,1.53
2019-03-04T15:19:45.147Z,1.27
2019-03-04T15:25:04.785Z,1.43
2019-03-04T15:30:23.397Z,1.15
2019-03-04T15:35:42.210Z,1.40
2019-03-04T15:41:00.775Z,1.40
2019-03-04T15:46:19.469Z,1.20
2019-03-04T15:51:38.108Z,1.63
2019-03-04T15:56:59.667Z,1.20
2019-03-04T16:02:21.393Z,1.47
2019-03-04T16:07:40.033Z,1.50
2019-03-04T16:12:58.645Z,2.10
2019-03-04T16:18:17.249Z,1.40
2019-03-04T16:23:35.800Z,1.40
2019-03-04T16:28:54.401Z,1.30
2019-03-04T16:34:13.053Z,1.07
2019-03-04T16:39:31.679Z,1.47
2019-03-04T16:44:50.150Z,1.20
2019-03-04T16:50:14.137Z,1.30
2019-03-04T16:55:32.738Z,1.20
2019-03-04T17:00:52.019Z,1.50
2019-03-04T17:06:10.657Z,1.00
2019-03-04T17:11:29.193Z,1.40
2019-03-04T17:16:50.594Z,1.27
2019-03-04T17:22:09.207Z,1.30
2019-03-04T17:27:27.823Z,1.83
2019-03-04T17:32:48.075Z,1.70
2019-03-04T17:38:06.769Z,1.30
2019-03-04T17:43:25.335Z,1.40
2019-03-04T17:48:43.891Z,2.27
2019-03-04T17:54:02.510Z,1.22
2019-03-04T17:59:21.076Z,1.30
2019-03-04T18:04:39.690Z,1.33
2019-03-04T18:09:58.301Z,1.13
2019-03-04T18:15:28.086Z,1.35
2019-03-04T18:20:46.688Z,1.30
2019-03-04T18:26:11.338Z,1.23
2019-03-04T18:31:44.858Z,1.40
2019-03-04T18:37:06.549Z,2.07
2019-03-04T18:42:44.579Z,1.17
2019-03-04T18:48:30.520Z,1.43
2019-03-04T18:53:49.238Z,1.73
2019-03-04T18:59:08.617Z,1.30
2019-03-04T19:04:27.234Z,1.13
2019-03-04T19:09:45.849Z,1.07
2019-03-04T19:15:06.562Z,1.30
2019-03-04T19:20:25.099Z,1.37
2019-03-04T19:25:43.723Z,1.20
2019-03-04T19:31:02.263Z,1.55
2019-03-04T19:36:20.980Z,0.90
2019-03-04T19:41:40.467Z,1.30
2019-03-04T19:46:59.122Z,1.30
2019-03-04T19:52:17.935Z,2.03
2019-03-04T19:57:36.532Z,1.73
2019-03-04T20:02:55.443Z,0.97
2019-03-04T20:08:17.599Z,1.60
2019-03-04T20:13:36.414Z,2.20
2019-03-04T20:18:56.239Z,1.70
2019-03-04T20:24:17.657Z,1.50
2019-03-04T20:29:36.317Z,1.40
2019-03-04T20:34:56.377Z,1.80
2019-03-04T20:40:15.111Z,1.67
2019-03-04T20:45:36.110Z,1.77
2019-03-04T20:50:54.750Z,2.17
2019-03-04T20:56:13.377Z,2.37
2019-03-04T21:01:32.098Z,1.80
2019-03-04T21:06:50.721Z,1.97
2019-03-04T21:12:09.259Z,1.63
2019-03-04T21:17:27.883Z,1.60
2019-03-04T21:22:47.366Z,2.15
2019-03-04T21:28:20.200Z,1.97
2019-03-04T21:33:59.780Z,1.70
2019-03-04T21:39:37.162Z,1.60
2019-03-04T21:45:01.358Z,1.20
2019-03-04T21:50:53.020Z,1.40
2019-03-04T21:56:14.581Z,1.10
2019-03-04T22:01:39.121Z,1.20
2019-03-04T22:06:57.654Z,1.40
2019-03-04T22:12:16.376Z,1.70
2019-03-04T22:17:35.011Z,1.13
2019-03-04T22:22:53.626Z,2.73
2019-03-04T22:28:16.666Z,2.20
2019-03-04T22:33:35.170Z,1.67
2019-03-04T22:38:53.739Z,2.43
2019-03-04T22:44:12.479Z,2.70
2019-03-04T22:49:31.063Z,2.30
2019-03-04T22:54:49.667Z,1.67
2019-03-04T23:00:43.253Z,2.20
2019-03-04T23:06:10.271Z,1.37
2019-03-04T23:11:31.591Z,1.73
2019-03-04T23:16:50.144Z,1.50
2019-03-04T23:22:08.777Z,1.87
2019-03-04T23:27:27.407Z,2.07
2019-03-04T23:32:45.963Z,1.33
2019-03-04T23:38:04.564Z,0.80
2019-03-04T23:43:23.206Z,1.97
2019-03-04T23:48:41.764Z,1.20
2019-03-04T23:54:00.380Z,1.47
2019-03-04T23:59:19.134Z,1.53
